Time,TemperatureF,DewpointF,PressureIn,WindDirection,WindDirectionDegrees,WindSpeedMPH,WindSpeedGustMPH,Humidity,HourlyPrecipIn,Conditions,Clouds,dailyrainin,SoftwareType,DateUTC
2013-01-29 00:00:00,32.2,31.7,29.92,SSE,156,0.0,0.0,98,0.00,CLR,,0.00,WeatherDisplay:10.37,2013-01-29 05:00:00,
2013-01-29 00:01:00,32.2,31.7,29.92,South,169,0.3,2.0,98,0.00,CLR,,0.00,WeatherDisplay:10.37,2013-01-29 05:01:00,
2013-01-29 00:03:00,32.2,31.7,29.92,SSW,208,0.3,2.3,98,0.00,CLR,,0.00,WeatherDisplay:10.37,2013-01-29 05:03:00,
2013-01-29 00:08:00,32.4,31.9,29.92,SSW,208,0.0,0.0,98,0.00,CLR,,0.00,WeatherDisplay:10.37,2013-01-29 05:08:00,
2013-01-29 00:14:00,32.4,31.9,29.92,SSW,209,0.0,0.0,98,0.00,CLR,,0.00,WeatherDisplay:10.37,2013-01-29 05:14:00,
2013-01-29 00:19:00,32.5,32.0,29.92,SSW,209,0.0,1.1,98,0.00,CLR,,0.00,WeatherDisplay:10.37,2013-01-29 05:19:00,
2013-01-29 00:24:00,32.5,32.0,29.92,South,186,0.0,0.0,98,0.00,CLR,,0.00,WeatherDisplay:10.37,2013-01-29 05:24:00,
2013-01-29 00:29:00,32.7,32.2,29.92,South,173,1.0,2.3,98,0.00,CLR,,0.00,WeatherDisplay:10.37,2013-01-29 05:29:00,
2013-01-29 00:34:00,32.7,32.2,29.92,South,173,0.0,0.0,98,0.00,CLR,,0.00,WeatherDisplay:10.37,2013-01-29 05:34:00,
2013-01-29 00:39:00,32.8,32.3,29.92,SW,223,0.3,2.3,98,0.00,CLR,,0.00,WeatherDisplay:10.37,2013-01-29 05:39:00,
2013-01-29 00:45:00,32.8,32.3,29.92,SSW,213,0.0,0.0,98,0.00,CLR,,0.00,WeatherDisplay:10.37,2013-01-29 05:45:00,
2013-01-29 00:50:00,32.9,32.4,29.92,SSW,213,0.1,1.1,98,0.00,CLR,,0.00,WeatherDisplay:10.37,2013-01-29 05:50:00,
2013-01-29 00:55:00,32.9,32.4,29.92,SSW,213,0.0,0.0,98,0.00,CLR,,0.00,WeatherDisplay:10.37,2013-01-29 05:55:00,
2013-01-29 01:01:00,32.9,32.4,29.92,SSW,213,0.0,1.1,98,0.00,CLR,,0.00,WeatherDisplay:10.37,2013-01-29 06:01:00,
2013-01-29 01:06:00,32.9,32.4,29.92,SSW,213,0.0,0.0,98,0.00,CLR,,0.00,WeatherDisplay:10.37,2013-01-29 06:06:00,
2013-01-29 01:11:00,32.8,32.3,29.91,SSW,213,0.9,2.3,98,0.00,CLR,,0.00,WeatherDisplay:10.37,2013-01-29 06:11:00,
2013-01-29 01:16:00,32.8,32.3,29.92,SSW,213,1.6,2.3,98,0.00,CLR,,0.00,WeatherDisplay:10.37,2013-01-29 06:16:00,
2013-01-29 01:21:00,32.8,32.3,29.92,SSW,213,1.0,2.0,98,0.00,CLR,,0.00,WeatherDisplay:10.37,2013-01-29 06:21:00,
2013-01-29 01:27:00,32.8,32.3,29.92,SW,229,1.3,3.5,98,0.00,CLR,,0.00,WeatherDisplay:10.37,2013-01-29 06:27:00,
2013-01-29 01:32:00,32.8,32.3,29.92,SW,229,1.1,3.5,98,0.00,CLR,,0.00,WeatherDisplay:10.37,2013-01-29 06:32:00,
2013-01-29 01:37:00,32.8,32.3,29.92,SW,229,0.5,3.5,98,0.00,CLR,,0.00,WeatherDisplay:10.37,2013-01-29 06:37:00,
2013-01-29 01:42:00,32.8,32.3,29.92,SW,229,1.4,2.3,98,0.00,CLR,,0.00,WeatherDisplay:10.37,2013-01-29 06:42:00,
2013-01-29 01:48:00,32.9,32.4,29.92,SW,229,0.0,1.1,98,0.00,CLR,,0.00,WeatherDisplay:10.37,2013-01-29 06:48:00,
2013-01-29 01:53:00,32.9,32.4,29.93,SW,236,0.0,0.0,98,0.00,CLR,,0.00,WeatherDisplay:10.37,2013-01-29 06:53:00,
2013-01-29 01:58:00,32.9,32.4,29.93,SW,236,0.0,0.0,98,0.00,CLR,,0.00,WeatherDisplay:10.37,2013-01-29 06:58:00,
2013-01-29 02:03:00,32.9,32.4,29.93,SW,236,0.0,0.0,98,0.00,CLR,,0.00,WeatherDisplay:10.37,2013-01-29 07:03:00,
2013-01-29 02:09:00,33.1,32.6,29.94,SW,236,0.0,0.0,98,0.00,CLR,,0.00,WeatherDisplay:10.37,2013-01-29 07:09:00,
2013-01-29 02:14:00,33.1,32.6,29.94,SW,236,0.0,0.0,98,0.00,CLR,,0.00,WeatherDisplay:10.37,2013-01-29 07:14:00,
2013-01-29 02:19:00,33.1,32.9,29.94,SW,235,0.0,1.1,99,0.00,CLR,,0.00,WeatherDisplay:10.37,2013-01-29 07:19:00,
2013-01-29 02:24:00,33.2,33.0,29.94,SW,221,0.1,3.5,99,0.00,CLR,,0.00,WeatherDisplay:10.37,2013-01-29 07:24:00,
2013-01-29 02:30:00,33.1,32.6,29.94,SW,221,0.0,0.0,98,0.00,CLR,,0.00,WeatherDisplay:10.37,2013-01-29 07:30:00,
2013-01-29 02:35:00,33.1,32.6,29.94,SW,221,0.0,0.0,98,0.00,CLR,,0.00,WeatherDisplay:10.37,2013-01-29 07:35:00,
2013-01-29 02:40:00,33.1,32.9,29.94,SW,221,0.0,0.0,99,0.00,CLR,,0.00,WeatherDisplay:10.37,2013-01-29 07:40:00,
2013-01-29 02:45:00,32.9,32.7,29.94,SW,221,0.2,1.1,99,0.00,CLR,,0.00,WeatherDisplay:10.37,2013-01-29 07:45:00,
2013-01-29 02:51:00,32.9,32.7,29.94,SW,221,0.0,0.0,99,0.00,CLR,,0.00,WeatherDisplay:10.37,2013-01-29 07:51:00,
2013-01-29 02:56:00,32.9,32.7,29.95,SW,221,0.0,0.0,99,0.00,CLR,,0.00,WeatherDisplay:10.37,2013-01-29 07:56:00,
2013-01-29 03:01:00,32.9,32.7,29.94,SW,221,0.0,0.0,99,0.00,CLR,,0.00,WeatherDisplay:10.37,2013-01-29 08:01:00,
2013-01-29 03:06:00,32.9,32.7,29.94,SW,221,0.4,1.1,99,0.00,CLR,,0.00,WeatherDisplay:10.37,2013-01-29 08:06:00,
2013-01-29 03:11:00,32.9,32.7,29.94,SW,221,0.0,0.0,99,0.00,CLR,,0.00,WeatherDisplay:10.37,2013-01-29 08:11:00,
2013-01-29 03:16:00,32.9,32.7,29.94,SW,221,0.3,2.3,99,0.00,CLR,,0.00,WeatherDisplay:10.37,2013-01-29 08:16:00,
2013-01-29 03:22:00,32.9,32.7,29.94,SW,221,1.2,2.3,99,0.00,CLR,,0.00,WeatherDisplay:10.37,2013-01-29 08:22:00,
2013-01-29 03:27:00,32.9,32.7,29.94,SW,221,0.0,0.0,99,0.00,CLR,,0.00,WeatherDisplay:10.37,2013-01-29 08:27:00,
2013-01-29 03:32:00,32.9,32.7,29.94,SW,221,0.1,1.1,99,0.00,CLR,,0.00,WeatherDisplay:10.37,2013-01-29 08:32:00,
2013-01-29 03:37:00,32.9,32.7,29.94,SW,221,0.0,1.1,99,0.00,CLR,,0.00,WeatherDisplay:10.37,2013-01-29 08:37:00,
2013-01-29 03:43:00,32.8,32.6,29.94,SW,221,0.0,0.0,99,0.00,CLR,,0.00,WeatherDisplay:10.37,2013-01-29 08:43:00,
2013-01-29 03:48:00,32.8,32.6,29.94,SW,221,0.1,1.1,99,0.00,CLR,,0.00,WeatherDisplay:10.37,2013-01-29 08:48:00,
2013-01-29 03:53:00,32.8,32.6,29.94,SW,221,0.0,0.0,99,0.00,CLR,,0.00,WeatherDisplay:10.37,2013-01-29 08:53:00,
2013-01-29 03:58:00,32.8,32.6,29.95,SW,221,0.0,0.0,99,0.00,CLR,,0.00,WeatherDisplay:10.37,2013-01-29 08:58:00,
2013-01-29 04:04:00,32.8,32.6,29.95,SW,221,0.0,0.0,99,0.00,CLR,,0.00,WeatherDisplay:10.37,2013-01-29 09:04:00,
2013-01-29 04:09:00,32.8,32.6,29.95,SW,221,0.0,0.0,99,0.00,CLR,,0.00,WeatherDisplay:10.37,2013-01-29 09:09:00,
2013-01-29 04:14:00,32.8,32.6,29.95,SW,221,0.0,0.0,99,0.00,CLR,,0.00,WeatherDisplay:10.37,2013-01-29 09:14:00,
2013-01-29 04:19:00,32.8,32.6,29.95,SW,221,0.1,1.1,99,0.00,CLR,,0.00,WeatherDisplay:10.37,2013-01-29 09:19:00,
2013-01-29 04:25:00,32.8,32.6,29.95,SW,221,0.0,0.0,99,0.00,CLR,,0.00,WeatherDisplay:10.37,2013-01-29 09:25:00,
2013-01-29 04:30:00,32.8,32.6,29.96,WNW,299,0.6,1.1,99,0.00,CLR,,0.00,WeatherDisplay:10.37,2013-01-29 09:30:00,
2013-01-29 04:35:00,32.8,32.6,29.96,WNW,299,0.0,0.0,99,0.00,CLR,,0.00,WeatherDisplay:10.37,2013-01-29 09:35:00,
2013-01-29 04:40:00,32.8,32.8,29.97,WNW,299,0.0,0.0,100,0.00,,,0.00,WeatherDisplay:10.37,2013-01-29 09:40:00,
2013-01-29 04:46:00,32.8,32.8,29.97,WNW,299,0.0,0.0,100,0.00,,,0.00,WeatherDisplay:10.37,2013-01-29 09:46:00,
2013-01-29 04:51:00,32.8,32.8,29.97,WNW,299,0.0,0.0,100,0.00,,,0.00,WeatherDisplay:10.37,2013-01-29 09:51:00,
2013-01-29 04:56:00,32.8,32.8,29.97,WNW,299,0.0,0.0,100,0.00,,,0.00,WeatherDisplay:10.37,2013-01-29 09:56:00,
2013-01-29 05:02:00,32.8,32.8,29.97,WNW,299,0.0,0.0,100,0.00,,,0.00,WeatherDisplay:10.37,2013-01-29 10:02:00,
2013-01-29 05:07:00,32.8,32.8,29.97,WNW,299,0.0,0.0,100,0.00,,,0.00,WeatherDisplay:10.37,2013-01-29 10:07:00,
2013-01-29 05:12:00,32.8,32.8,29.98,WNW,299,0.1,1.1,100,0.00,,,0.00,WeatherDisplay:10.37,2013-01-29 10:12:00,
2013-01-29 05:17:00,32.7,32.7,29.98,WNW,299,0.0,0.0,100,0.00,,,0.00,WeatherDisplay:10.37,2013-01-29 10:17:00,
2013-01-29 05:23:00,32.7,32.7,29.98,WNW,299,0.0,0.0,100,0.00,,,0.00,WeatherDisplay:10.37,2013-01-29 10:23:00,
2013-01-29 05:28:00,32.7,32.7,29.98,WNW,299,0.0,0.0,100,0.00,,,0.00,WeatherDisplay:10.37,2013-01-29 10:28:00,
2013-01-29 05:33:00,32.7,32.7,29.98,WNW,299,0.0,0.0,100,0.00,,,0.00,WeatherDisplay:10.37,2013-01-29 10:33:00,
2013-01-29 05:38:00,32.7,32.7,29.99,WNW,299,0.0,0.0,100,0.00,,,0.00,WeatherDisplay:10.37,2013-01-29 10:38:00,
2013-01-29 05:44:00,32.7,32.7,29.99,WNW,299,0.0,0.0,100,0.00,,,0.00,WeatherDisplay:10.37,2013-01-29 10:44:00,
2013-01-29 05:49:00,32.8,32.8,29.98,WNW,299,0.0,0.0,100,0.00,,,0.00,WeatherDisplay:10.37,2013-01-29 10:49:00,
2013-01-29 05:54:00,32.8,32.8,29.98,WNW,299,0.0,0.0,100,0.00,,,0.00,WeatherDisplay:10.37,2013-01-29 10:54:00,
2013-01-29 05:59:00,32.8,32.8,29.99,WNW,299,0.0,0.0,100,0.00,,,0.00,WeatherDisplay:10.37,2013-01-29 10:59:00,
2013-01-29 06:05:00,32.7,32.7,30.00,WNW,299,0.0,0.0,100,0.00,,,0.00,WeatherDisplay:10.37,2013-01-29 11:05:00,
2013-01-29 06:10:00,32.7,32.7,30.00,WNW,299,0.0,0.0,100,0.00,,,0.00,WeatherDisplay:10.37,2013-01-29 11:10:00,
2013-01-29 06:15:00,32.7,32.7,30.00,WNW,299,0.0,0.0,100,0.00,,,0.00,WeatherDisplay:10.37,2013-01-29 11:15:00,
2013-01-29 06:20:00,32.7,32.7,30.01,WSW,252,0.0,1.1,100,0.00,,,0.00,WeatherDisplay:10.37,2013-01-29 11:20:00,
2013-01-29 06:26:00,32.7,32.7,30.01,WSW,252,0.0,0.0,100,0.01,RA,,0.01,WeatherDisplay:10.37,2013-01-29 11:26:00,
2013-01-29 06:31:00,32.7,32.7,30.01,WSW,252,0.0,0.0,100,0.01,RA,,0.01,WeatherDisplay:10.37,2013-01-29 11:31:00,
2013-01-29 06:36:00,32.7,32.7,30.01,WSW,252,0.0,0.0,100,0.01,,,0.01,WeatherDisplay:10.37,2013-01-29 11:36:00,
2013-01-29 06:41:00,32.7,32.7,30.01,WSW,252,0.0,0.0,100,0.01,CLR,,0.01,WeatherDisplay:10.37,2013-01-29 11:41:00,
2013-01-29 06:46:00,32.7,32.7,30.02,WSW,252,0.0,0.0,100,0.01,CLR,,0.01,WeatherDisplay:10.37,2013-01-29 11:46:00,
2013-01-29 06:51:00,32.7,32.7,30.03,WSW,252,0.0,0.0,100,0.01,CLR,,0.01,WeatherDisplay:10.37,2013-01-29 11:51:00,
2013-01-29 06:57:00,32.7,32.7,30.03,WSW,252,0.0,0.0,100,0.01,CLR,,0.01,WeatherDisplay:10.37,2013-01-29 11:57:00,
2013-01-29 07:02:00,32.8,32.8,30.03,WSW,252,0.0,0.0,100,0.01,,,0.01,WeatherDisplay:10.37,2013-01-29 12:02:00,
2013-01-29 07:07:00,32.8,32.8,30.03,WSW,252,0.0,0.0,100,0.01,,,0.01,WeatherDisplay:10.37,2013-01-29 12:07:00,
2013-01-29 07:13:00,32.8,32.8,30.03,WSW,252,0.0,0.0,100,0.01,,,0.01,WeatherDisplay:10.37,2013-01-29 12:13:00,
2013-01-29 07:18:00,32.8,32.8,30.03,WSW,252,0.0,0.0,100,0.01,,,0.01,WeatherDisplay:10.37,2013-01-29 12:18:00,
2013-01-29 07:23:00,32.8,32.8,30.03,WSW,252,0.0,0.0,100,0.00,,,0.01,WeatherDisplay:10.37,2013-01-29 12:23:00,
2013-01-29 07:29:00,32.8,32.8,30.03,WSW,252,0.0,0.0,100,0.00,,,0.01,WeatherDisplay:10.37,2013-01-29 12:29:00,
2013-01-29 07:34:00,32.9,32.9,30.03,WSW,252,0.0,0.0,100,0.00,,,0.01,WeatherDisplay:10.37,2013-01-29 12:34:00,
2013-01-29 07:39:00,32.9,32.9,30.04,WSW,252,0.0,0.0,100,0.00,,,0.01,WeatherDisplay:10.37,2013-01-29 12:39:00,
2013-01-29 07:44:00,33.1,33.1,30.05,WSW,252,0.0,0.0,100,0.00,,,0.01,WeatherDisplay:10.37,2013-01-29 12:44:00,
2013-01-29 07:49:00,33.1,33.1,30.05,WSW,252,0.0,0.0,100,0.00,,,0.01,WeatherDisplay:10.37,2013-01-29 12:49:00,
2013-01-29 07:55:00,33.1,33.1,30.05,WSW,252,0.0,0.0,100,0.00,,,0.01,WeatherDisplay:10.37,2013-01-29 12:55:00,
2013-01-29 08:00:00,33.1,33.1,30.04,WSW,252,0.0,0.0,100,0.00,,,0.01,WeatherDisplay:10.37,2013-01-29 13:00:00,
2013-01-29 08:05:00,33.1,33.1,30.04,WNW,291,0.0,0.0,100,0.00,,,0.01,WeatherDisplay:10.37,2013-01-29 13:05:00,
2013-01-29 08:10:00,33.2,33.2,30.04,WNW,291,0.0,0.0,100,0.00,,,0.01,WeatherDisplay:10.37,2013-01-29 13:10:00,
2013-01-29 08:15:00,33.5,33.5,30.04,WNW,291,0.0,0.0,100,0.00,,,0.01,WeatherDisplay:10.37,2013-01-29 13:15:00,
2013-01-29 08:21:00,33.7,33.7,30.03,WNW,291,0.0,0.0,100,0.00,,,0.01,WeatherDisplay:10.37,2013-01-29 13:21:00,
2013-01-29 08:26:00,33.8,33.8,30.04,WNW,291,0.0,0.0,100,0.00,,,0.01,WeatherDisplay:10.37,2013-01-29 13:26:00,
2013-01-29 08:31:00,34.0,34.0,30.04,WNW,291,0.0,0.0,100,0.00,,,0.01,WeatherDisplay:10.37,2013-01-29 13:31:00,
2013-01-29 08:36:00,34.3,34.3,30.04,WNW,291,0.0,0.0,100,0.00,,,0.01,WeatherDisplay:10.37,2013-01-29 13:36:00,
2013-01-29 08:41:00,34.9,34.9,30.05,WNW,291,0.0,0.0,100,0.00,,,0.01,WeatherDisplay:10.37,2013-01-29 13:41:00,
2013-01-29 08:47:00,35.6,35.6,30.05,WNW,291,0.0,0.0,100,0.00,,,0.01,WeatherDisplay:10.37,2013-01-29 13:47:00,
2013-01-29 08:52:00,35.8,35.8,30.04,WNW,291,0.0,0.0,100,0.00,,,0.01,WeatherDisplay:10.37,2013-01-29 13:52:00,
2013-01-29 08:57:00,35.9,35.9,30.05,WNW,291,0.0,0.0,100,0.00,,,0.01,WeatherDisplay:10.37,2013-01-29 13:57:00,
2013-01-29 09:02:00,35.8,35.8,30.05,WNW,291,0.0,0.0,100,0.01,RA,,0.02,WeatherDisplay:10.37,2013-01-29 14:02:00,
2013-01-29 09:07:00,35.9,35.9,30.06,WNW,291,0.0,0.0,100,0.01,RA,,0.02,WeatherDisplay:10.37,2013-01-29 14:07:00,
2013-01-29 09:13:00,36.0,36.0,30.06,WNW,291,0.0,0.0,100,0.01,,,0.02,WeatherDisplay:10.37,2013-01-29 14:13:00,
2013-01-29 09:18:00,36.3,36.3,30.06,WNW,291,0.0,0.0,100,0.01,,,0.02,WeatherDisplay:10.37,2013-01-29 14:18:00,
2013-01-29 09:23:00,36.6,36.6,30.06,WNW,291,0.0,0.0,100,0.02,RA,,0.03,WeatherDisplay:10.37,2013-01-29 14:23:00,
2013-01-29 09:28:00,36.6,36.6,30.07,WNW,291,0.0,0.0,100,0.02,RA,,0.03,WeatherDisplay:10.37,2013-01-29 14:28:00,
2013-01-29 09:34:00,36.8,36.8,30.07,WNW,291,0.0,0.0,100,0.02,,,0.04,WeatherDisplay:10.37,2013-01-29 14:34:00,
2013-01-29 09:39:00,36.9,36.9,30.07,WNW,291,0.0,0.0,100,0.03,RA,,0.04,WeatherDisplay:10.37,2013-01-29 14:39:00,
2013-01-29 09:44:00,37.2,37.2,30.06,WNW,291,0.0,0.0,100,0.03,RA,,0.04,WeatherDisplay:10.37,2013-01-29 14:44:00,
2013-01-29 09:49:00,37.5,37.5,30.07,WNW,291,0.0,0.0,100,0.04,RA,,0.05,WeatherDisplay:10.37,2013-01-29 14:49:00,
2013-01-29 09:55:00,37.6,37.3,30.07,WNW,291,0.0,0.0,99,0.05,RA,,0.06,WeatherDisplay:10.37,2013-01-29 14:55:00,
2013-01-29 10:00:00,37.9,37.4,30.06,WNW,291,0.0,0.0,98,0.04,RA,,0.06,WeatherDisplay:10.37,2013-01-29 15:00:00,
2013-01-29 10:05:00,38.2,37.7,30.07,WNW,291,0.0,0.0,98,0.04,,,0.07,WeatherDisplay:10.37,2013-01-29 15:05:00,
2013-01-29 10:10:00,38.5,37.7,30.07,WNW,291,0.1,1.1,97,0.05,RA,,0.07,WeatherDisplay:10.37,2013-01-29 15:10:00,
2013-01-29 10:15:00,38.6,37.6,30.06,WNW,291,0.0,1.1,96,0.06,RA,,0.08,WeatherDisplay:10.37,2013-01-29 15:15:00,
2013-01-29 10:21:00,38.8,37.5,30.06,WNW,291,0.0,1.1,95,0.06,RA,,0.08,WeatherDisplay:10.37,2013-01-29 15:21:00,
2013-01-29 10:26:00,39.1,37.5,30.06,NW,318,0.0,0.0,94,0.05,,,0.08,WeatherDisplay:10.37,2013-01-29 15:26:00,
2013-01-29 10:31:00,39.6,37.7,30.07,NW,318,0.2,1.1,93,0.06,RA,,0.09,WeatherDisplay:10.37,2013-01-29 15:31:00,
2013-01-29 10:37:00,39.9,37.8,30.07,NW,318,0.0,0.0,92,0.05,RA,,0.09,WeatherDisplay:10.37,2013-01-29 15:37:00,
2013-01-29 10:42:00,40.6,38.5,30.07,NW,318,0.0,0.0,92,0.06,RA,,0.10,WeatherDisplay:10.37,2013-01-29 15:42:00,
2013-01-29 10:47:00,40.9,38.2,30.07,NW,318,0.0,0.0,90,0.05,RA,,0.10,WeatherDisplay:10.37,2013-01-29 15:47:00,
2013-01-29 10:52:00,41.1,38.4,30.07,NW,318,0.0,0.0,90,0.06,RA,,0.11,WeatherDisplay:10.37,2013-01-29 15:52:00,
2013-01-29 10:57:00,41.2,38.2,30.07,NW,319,0.8,2.3,89,0.06,RA,,0.12,WeatherDisplay:10.37,2013-01-29 15:57:00,
2013-01-29 11:03:00,41.5,38.2,30.07,NW,319,0.3,2.3,88,0.06,RA,,0.12,WeatherDisplay:10.37,2013-01-29 16:03:00,
2013-01-29 11:08:00,41.3,38.0,30.07,NW,324,0.0,0.0,88,0.06,RA,,0.13,WeatherDisplay:10.37,2013-01-29 16:08:00,
2013-01-29 11:13:00,41.5,38.2,30.07,NNW,331,0.0,0.0,88,0.07,RA,,0.14,WeatherDisplay:10.37,2013-01-29 16:13:00,
2013-01-29 11:19:00,41.5,37.9,30.07,NNW,331,0.0,2.3,87,0.06,RA,,0.14,WeatherDisplay:10.37,2013-01-29 16:19:00,
2013-01-29 11:24:00,41.6,38.3,30.06,NNW,336,0.0,2.3,88,0.07,RA,,0.15,WeatherDisplay:10.37,2013-01-29 16:24:00,
2013-01-29 11:29:00,41.9,38.6,30.06,North,360,0.0,1.1,88,0.07,RA,,0.15,WeatherDisplay:10.37,2013-01-29 16:29:00,
2013-01-29 11:35:00,41.9,38.3,30.06,NNE,32,0.0,0.0,87,0.07,RA,,0.16,WeatherDisplay:10.37,2013-01-29 16:35:00,
2013-01-29 11:40:00,41.6,37.7,30.05,SE,124,2.1,3.5,86,0.07,RA,,0.16,WeatherDisplay:10.37,2013-01-29 16:40:00,
2013-01-29 11:45:00,41.1,37.2,30.05,SSE,149,0.5,3.5,86,0.06,,,0.16,WeatherDisplay:10.37,2013-01-29 16:45:00,
2013-01-29 11:50:00,40.8,37.2,30.05,ESE,103,0.2,1.1,87,0.05,,,0.16,WeatherDisplay:10.37,2013-01-29 16:50:00,
2013-01-29 11:56:00,40.8,37.5,30.05,SSE,152,0.0,3.5,88,0.05,RA,,0.17,WeatherDisplay:10.37,2013-01-29 16:56:00,
2013-01-29 12:01:00,40.8,37.2,30.05,SE,124,1.9,3.5,87,0.05,RA,,0.17,WeatherDisplay:10.37,2013-01-29 17:01:00,
2013-01-29 12:06:00,40.5,36.9,30.05,SSE,151,0.1,2.0,87,0.04,,,0.17,WeatherDisplay:10.37,2013-01-29 17:06:00,
2013-01-29 12:11:00,40.2,36.6,30.05,ESE,117,2.0,4.6,87,0.05,RA,,0.18,WeatherDisplay:10.37,2013-01-29 17:11:00,
2013-01-29 12:16:00,39.9,36.3,30.05,SSE,155,1.7,9.2,87,0.04,RA,,0.18,WeatherDisplay:10.37,2013-01-29 17:16:00,
2013-01-29 12:22:00,39.6,36.0,30.05,ESE,111,0.0,0.0,87,0.04,,,0.18,WeatherDisplay:10.37,2013-01-29 17:22:00,
2013-01-29 12:27:00,39.5,36.2,30.05,SSE,153,0.8,3.5,88,0.03,,,0.18,WeatherDisplay:10.37,2013-01-29 17:27:00,
2013-01-29 12:32:00,39.3,36.0,30.05,SE,132,0.8,3.5,88,0.03,,,0.18,WeatherDisplay:10.37,2013-01-29 17:32:00,
2013-01-29 12:37:00,39.3,36.3,30.05,ESE,103,1.0,1.1,89,0.02,,,0.18,WeatherDisplay:10.37,2013-01-29 17:37:00,
2013-01-29 12:42:00,39.8,36.8,30.05,East,94,1.1,2.3,89,0.02,,,0.18,WeatherDisplay:10.37,2013-01-29 17:42:00,
2013-01-29 12:48:00,39.9,36.3,30.05,ESE,115,0.5,3.5,87,0.03,RA,,0.19,WeatherDisplay:10.37,2013-01-29 17:48:00,
2013-01-29 12:53:00,39.8,36.2,30.05,ESE,108,0.2,1.1,87,0.02,RA,,0.19,WeatherDisplay:10.37,2013-01-29 17:53:00,
2013-01-29 12:58:00,39.8,36.2,30.05,ESE,108,0.1,1.1,87,0.02,,,0.19,WeatherDisplay:10.37,2013-01-29 17:58:00,
2013-01-29 13:03:00,39.6,36.0,30.04,SE,140,0.1,0.0,87,0.02,,,0.19,WeatherDisplay:10.37,2013-01-29 18:03:00,
2013-01-29 13:08:00,39.2,35.7,30.05,SE,132,2.0,4.0,87,0.02,,,0.19,WeatherDisplay:10.37,2013-01-29 18:08:00,
2013-01-29 13:13:00,38.6,35.6,30.05,ESE,105,0.7,2.3,89,0.01,,,0.19,WeatherDisplay:10.37,2013-01-29 18:13:00,
2013-01-29 13:19:00,38.5,35.8,30.04,SE,140,1.8,4.6,90,0.01,,,0.19,WeatherDisplay:10.37,2013-01-29 18:19:00,
2013-01-29 13:24:00,38.3,35.6,30.04,ENE,71,0.1,2.3,90,0.01,,,0.19,WeatherDisplay:10.37,2013-01-29 18:24:00,
2013-01-29 13:29:00,38.5,35.8,30.04,East,89,0.3,2.3,90,0.01,,,0.19,WeatherDisplay:10.37,2013-01-29 18:29:00,
2013-01-29 13:35:00,38.6,35.9,30.03,NE,51,0.3,1.1,90,0.02,RA,,0.20,WeatherDisplay:10.37,2013-01-29 18:35:00,
2013-01-29 13:40:00,38.9,36.2,30.04,WSW,254,0.0,0.0,90,0.02,RA,,0.20,WeatherDisplay:10.37,2013-01-29 18:40:00,
2013-01-29 13:45:00,38.9,35.9,30.04,SE,128,0.2,3.5,89,0.01,,,0.20,WeatherDisplay:10.37,2013-01-29 18:45:00,
2013-01-29 13:50:00,38.8,35.8,30.03,ENE,64,0.6,4.6,89,0.01,,,0.20,WeatherDisplay:10.37,2013-01-29 18:50:00,
2013-01-29 13:55:00,38.8,35.8,30.03,NE,50,0.0,0.0,89,0.01,,,0.20,WeatherDisplay:10.37,2013-01-29 18:55:00,
2013-01-29 14:00:00,38.8,35.8,30.03,NE,50,0.0,0.0,89,0.01,,,0.20,WeatherDisplay:10.37,2013-01-29 19:00:00,
2013-01-29 14:06:00,38.6,35.6,30.04,ENE,67,0.0,0.0,89,0.01,,,0.20,WeatherDisplay:10.37,2013-01-29 19:06:00,
2013-01-29 14:11:00,38.3,35.3,30.04,ESE,119,2.0,5.8,89,0.01,,,0.20,WeatherDisplay:10.37,2013-01-29 19:11:00,
2013-01-29 14:16:00,37.6,34.9,30.03,ESE,111,2.6,5.8,90,0.01,,,0.20,WeatherDisplay:10.37,2013-01-29 19:16:00,
2013-01-29 14:21:00,37.3,34.9,30.03,ESE,123,1.5,3.5,91,0.01,,,0.20,WeatherDisplay:10.37,2013-01-29 19:21:00,
2013-01-29 14:27:00,37.3,35.2,30.03,SW,217,0.0,1.1,92,0.01,,,0.20,WeatherDisplay:10.37,2013-01-29 19:27:00,
2013-01-29 14:32:00,37.2,35.1,30.04,SE,124,3.2,4.6,92,0.01,,,0.20,WeatherDisplay:10.37,2013-01-29 19:32:00,
2013-01-29 14:37:00,37.2,35.1,30.04,SE,143,0.6,4.0,92,0.00,CLR,,0.20,WeatherDisplay:10.37,2013-01-29 19:37:00,
2013-01-29 14:42:00,37.2,35.1,30.04,SSE,161,0.9,1.1,92,0.00,CLR,,0.20,WeatherDisplay:10.37,2013-01-29 19:42:00,
2013-01-29 14:47:00,37.2,35.1,30.04,SSE,153,2.6,5.8,92,0.00,CLR,,0.20,WeatherDisplay:10.37,2013-01-29 19:47:00,
2013-01-29 14:52:00,36.9,34.8,30.06,South,174,1.7,4.0,92,0.00,CLR,,0.20,WeatherDisplay:10.37,2013-01-29 19:52:00,
2013-01-29 14:57:00,36.8,34.7,30.05,SSE,168,1.9,3.5,92,0.00,CLR,,0.20,WeatherDisplay:10.37,2013-01-29 19:57:00,
2013-01-29 15:03:00,36.6,34.8,30.06,SE,144,2.1,4.6,93,0.00,CLR,,0.20,WeatherDisplay:10.37,2013-01-29 20:03:00,
2013-01-29 15:08:00,36.6,34.8,30.05,SSW,199,0.5,3.5,93,0.00,CLR,,0.20,WeatherDisplay:10.37,2013-01-29 20:08:00,
2013-01-29 15:13:00,36.5,34.9,30.06,SE,142,0.7,2.3,94,0.00,CLR,,0.20,WeatherDisplay:10.37,2013-01-29 20:13:00,
2013-01-29 15:18:00,36.5,34.9,30.05,ESE,117,3.0,3.0,94,0.00,CLR,,0.20,WeatherDisplay:10.37,2013-01-29 20:18:00,
2013-01-29 15:23:00,36.3,34.7,30.04,SE,135,4.7,5.8,94,0.00,CLR,,0.20,WeatherDisplay:10.37,2013-01-29 20:23:00,
2013-01-29 15:28:00,36.2,34.6,30.05,South,175,2.6,7.0,94,0.00,CLR,,0.20,WeatherDisplay:10.37,2013-01-29 20:28:00,
2013-01-29 15:33:00,36.2,34.9,30.06,South,184,4.3,6.9,95,0.00,CLR,,0.20,WeatherDisplay:10.37,2013-01-29 20:33:00,
2013-01-29 15:39:00,36.2,34.9,30.04,South,173,1.3,3.5,95,0.00,CLR,,0.20,WeatherDisplay:10.37,2013-01-29 20:39:00,
2013-01-29 15:44:00,36.2,34.9,30.05,SE,135,1.7,3.5,95,0.00,CLR,,0.20,WeatherDisplay:10.37,2013-01-29 20:44:00,
2013-01-29 15:49:00,36.0,34.7,30.05,SE,143,0.8,4.6,95,0.00,CLR,,0.20,WeatherDisplay:10.37,2013-01-29 20:49:00,
2013-01-29 15:54:00,36.0,34.7,30.05,ESE,105,1.2,2.3,95,0.00,CLR,,0.20,WeatherDisplay:10.37,2013-01-29 20:54:00,
2013-01-29 15:59:00,36.0,34.7,30.06,South,174,0.1,1.1,95,0.00,CLR,,0.20,WeatherDisplay:10.37,2013-01-29 20:59:00,
2013-01-29 16:05:00,35.9,34.6,30.06,WSW,253,0.0,0.0,95,0.00,CLR,,0.20,WeatherDisplay:10.37,2013-01-29 21:05:00,
2013-01-29 16:10:00,36.0,34.7,30.06,SSW,209,0.0,0.0,95,0.00,CLR,,0.20,WeatherDisplay:10.37,2013-01-29 21:10:00,
2013-01-29 16:15:00,35.9,34.6,30.06,West,267,0.3,1.1,95,0.00,CLR,,0.20,WeatherDisplay:10.37,2013-01-29 21:15:00,
2013-01-29 16:20:00,35.9,34.6,30.06,West,269,0.1,1.1,95,0.00,CLR,,0.20,WeatherDisplay:10.37,2013-01-29 21:20:00,
2013-01-29 16:25:00,35.8,34.5,30.06,SSW,210,0.2,3.5,95,0.00,CLR,,0.20,WeatherDisplay:10.37,2013-01-29 21:25:00,
2013-01-29 16:31:00,35.8,34.5,30.07,SSW,210,0.0,0.0,95,0.00,CLR,,0.20,WeatherDisplay:10.37,2013-01-29 21:31:00,
2013-01-29 16:36:00,35.6,34.3,30.08,SSW,210,0.0,0.0,95,0.00,CLR,,0.20,WeatherDisplay:10.37,2013-01-29 21:36:00,
2013-01-29 16:41:00,35.6,34.3,30.08,SSW,209,0.0,0.0,95,0.00,CLR,,0.20,WeatherDisplay:10.37,2013-01-29 21:41:00,
2013-01-29 16:46:00,35.5,34.2,30.08,SSW,208,0.9,2.3,95,0.00,CLR,,0.20,WeatherDisplay:10.37,2013-01-29 21:46:00,
2013-01-29 16:54:00,35.5,34.5,30.08,SW,215,0.0,2.0,96,0.00,CLR,,0.20,WeatherDisplay:10.37,2013-01-29 21:54:00,
2013-01-29 16:59:00,35.5,34.5,30.09,SSW,193,0.6,3.5,96,0.00,RA,,0.20,WeatherDisplay:10.37,2013-01-29 21:59:00,
2013-01-29 17:05:00,35.5,34.5,30.10,SSW,193,0.0,2.3,96,0.00,RA,,0.20,WeatherDisplay:10.37,2013-01-29 22:05:00,
2013-01-29 17:10:00,35.5,34.5,30.09,SSW,193,0.6,1.1,96,0.00,CLR,,0.20,WeatherDisplay:10.37,2013-01-29 22:10:00,
2013-01-29 17:15:00,35.3,34.3,30.08,SE,127,1.0,3.5,96,0.00,CLR,,0.20,WeatherDisplay:10.37,2013-01-29 22:15:00,
2013-01-29 17:20:00,35.3,34.3,30.07,South,169,1.4,5.0,96,0.00,CLR,,0.20,WeatherDisplay:10.37,2013-01-29 22:20:00,
2013-01-29 17:25:00,35.5,34.7,30.07,WSW,244,0.3,2.3,97,0.00,CLR,,0.20,WeatherDisplay:10.37,2013-01-29 22:25:00,
2013-01-29 17:30:00,35.6,34.8,30.06,SW,229,0.4,2.3,97,0.01,RA,,0.21,WeatherDisplay:10.37,2013-01-29 22:30:00,
2013-01-29 17:36:00,35.5,34.7,30.06,SSW,194,0.0,0.0,97,0.01,RA,,0.21,WeatherDisplay:10.37,2013-01-29 22:36:00,
2013-01-29 17:41:00,35.6,34.8,30.06,South,174,0.1,1.1,97,0.01,CLR,,0.21,WeatherDisplay:10.37,2013-01-29 22:41:00,
2013-01-29 17:46:00,35.6,34.8,30.06,SSW,211,0.4,1.1,97,0.02,RA,,0.22,WeatherDisplay:10.37,2013-01-29 22:46:00,
2013-01-29 17:51:00,35.6,34.8,30.06,SW,217,0.0,0.0,97,0.02,RA,,0.22,WeatherDisplay:10.37,2013-01-29 22:51:00,
2013-01-29 17:56:00,35.6,34.8,30.06,SW,214,0.4,1.1,97,0.02,CLR,,0.22,WeatherDisplay:10.37,2013-01-29 22:56:00,
2013-01-29 18:02:00,35.6,34.8,30.06,SSE,165,0.8,2.3,97,0.02,CLR,,0.22,WeatherDisplay:10.37,2013-01-29 23:02:00,
2013-01-29 18:07:00,35.6,34.8,30.05,SSE,153,8.3,11.5,97,0.02,CLR,,0.22,WeatherDisplay:10.37,2013-01-29 23:07:00,
2013-01-29 18:12:00,35.6,34.8,30.06,SSE,154,4.1,9.2,97,0.02,CLR,,0.22,WeatherDisplay:10.37,2013-01-29 23:12:00,
2013-01-29 18:17:00,35.5,34.7,30.06,South,178,4.1,6.0,97,0.02,CLR,,0.22,WeatherDisplay:10.37,2013-01-29 23:17:00,
2013-01-29 18:22:00,35.5,34.7,30.06,SE,140,2.2,3.5,97,0.02,CLR,,0.22,WeatherDisplay:10.37,2013-01-29 23:22:00,
2013-01-29 18:27:00,35.3,34.5,30.06,SSE,152,2.1,3.5,97,0.02,CLR,,0.22,WeatherDisplay:10.37,2013-01-29 23:27:00,
2013-01-29 18:32:00,35.3,34.5,30.05,SE,138,0.5,3.0,97,0.01,CLR,,0.22,WeatherDisplay:10.37,2013-01-29 23:32:00,
2013-01-29 18:37:00,35.3,34.5,30.05,SE,135,0.0,0.0,97,0.01,CLR,,0.22,WeatherDisplay:10.37,2013-01-29 23:37:00,
2013-01-29 18:42:00,35.3,34.5,30.04,East,99,1.1,2.3,97,0.02,RA,,0.23,WeatherDisplay:10.37,2013-01-29 23:42:00,
2013-01-29 18:47:00,35.3,34.5,30.05,SSE,153,0.1,0.0,97,0.01,RA,,0.23,WeatherDisplay:10.37,2013-01-29 23:47:00,
2013-01-29 18:53:00,35.3,34.8,30.06,SW,223,1.2,3.5,98,0.01,CLR,,0.23,WeatherDisplay:10.37,2013-01-29 23:53:00,
2013-01-29 18:58:00,35.3,34.8,30.06,ESE,123,0.3,4.6,98,0.01,CLR,,0.23,WeatherDisplay:10.37,2013-01-29 23:58:00,
2013-01-29 19:03:00,35.3,34.8,30.06,SE,128,3.2,3.5,98,0.01,CLR,,0.23,WeatherDisplay:10.37,2013-01-30 00:03:00,
2013-01-29 19:08:00,35.3,34.8,30.06,SSE,167,0.0,1.1,98,0.01,CLR,,0.23,WeatherDisplay:10.37,2013-01-30 00:08:00,
2013-01-29 19:13:00,35.3,34.8,30.07,SSE,161,1.6,3.5,98,0.01,CLR,,0.23,WeatherDisplay:10.37,2013-01-30 00:13:00,
2013-01-29 19:19:00,35.3,34.8,30.07,ESE,105,0.0,0.0,98,0.01,CLR,,0.23,WeatherDisplay:10.37,2013-01-30 00:19:00,
2013-01-29 19:24:00,35.3,34.8,30.07,ESE,105,0.0,0.0,98,0.01,CLR,,0.23,WeatherDisplay:10.37,2013-01-30 00:24:00,
2013-01-29 19:29:00,35.3,34.8,30.06,ESE,105,0.0,1.1,98,0.01,CLR,,0.23,WeatherDisplay:10.37,2013-01-30 00:29:00,
2013-01-29 19:34:00,35.3,34.8,30.07,ESE,105,0.4,2.0,98,0.01,CLR,,0.23,WeatherDisplay:10.37,2013-01-30 00:34:00,
2013-01-29 19:39:00,35.2,34.7,30.06,ESE,121,0.6,2.3,98,0.01,CLR,,0.23,WeatherDisplay:10.37,2013-01-30 00:39:00,
2013-01-29 19:44:00,35.2,34.7,30.06,ESE,117,4.0,10.4,98,0.00,CLR,,0.23,WeatherDisplay:10.37,2013-01-30 00:44:00,
2013-01-29 19:49:00,35.2,34.7,30.06,SE,124,1.2,2.3,98,0.00,CLR,,0.23,WeatherDisplay:10.37,2013-01-30 00:49:00,
2013-01-29 19:55:00,35.2,34.7,30.06,SE,131,1.1,3.5,98,0.00,CLR,,0.23,WeatherDisplay:10.37,2013-01-30 00:55:00,
2013-01-29 20:00:00,35.2,34.7,30.07,ESE,123,1.7,3.5,98,0.00,CLR,,0.23,WeatherDisplay:10.37,2013-01-30 01:00:00,
2013-01-29 20:05:00,35.2,34.7,30.07,SE,129,0.3,2.3,98,0.00,CLR,,0.23,WeatherDisplay:10.37,2013-01-30 01:05:00,
2013-01-29 20:11:00,35.2,34.7,30.07,SE,146,0.5,2.3,98,0.00,CLR,,0.23,WeatherDisplay:10.37,2013-01-30 01:11:00,
2013-01-29 20:16:00,35.2,34.7,30.06,SE,146,0.2,1.1,98,0.00,CLR,,0.23,WeatherDisplay:10.37,2013-01-30 01:16:00,
2013-01-29 20:21:00,35.0,34.5,30.06,WSW,246,1.2,1.2,98,0.00,CLR,,0.23,WeatherDisplay:10.37,2013-01-30 01:21:00,
2013-01-29 20:26:00,35.0,34.5,30.06,SE,128,1.0,3.5,98,0.00,CLR,,0.23,WeatherDisplay:10.37,2013-01-30 01:26:00,
2013-01-29 20:31:00,35.0,34.5,30.06,SE,128,0.5,1.1,98,0.00,CLR,,0.23,WeatherDisplay:10.37,2013-01-30 01:31:00,
2013-01-29 20:37:00,35.0,34.5,30.06,SE,136,0.5,2.3,98,0.00,CLR,,0.23,WeatherDisplay:10.37,2013-01-30 01:37:00,
2013-01-29 20:42:00,35.0,34.5,30.06,SE,136,0.6,1.1,98,0.00,CLR,,0.23,WeatherDisplay:10.37,2013-01-30 01:42:00,
2013-01-29 20:47:00,35.0,34.5,30.06,ESE,117,1.4,1.4,98,0.01,RA,,0.24,WeatherDisplay:10.37,2013-01-30 01:47:00,
2013-01-29 20:52:00,35.0,34.7,30.06,SE,129,0.3,1.1,99,0.01,RA,,0.24,WeatherDisplay:10.37,2013-01-30 01:52:00,
2013-01-29 20:57:00,35.0,34.7,30.06,South,178,1.8,3.5,99,0.01,CLR,,0.24,WeatherDisplay:10.37,2013-01-30 01:57:00,
2013-01-29 21:02:00,35.0,34.7,30.06,SE,134,2.0,4.6,99,0.01,CLR,,0.24,WeatherDisplay:10.37,2013-01-30 02:02:00,
2013-01-29 21:08:00,35.0,34.7,30.06,SE,132,2.9,9.2,99,0.01,CLR,,0.24,WeatherDisplay:10.37,2013-01-30 02:08:00,
2013-01-29 21:13:00,35.0,34.7,30.06,ESE,113,0.4,2.3,99,0.01,CLR,,0.24,WeatherDisplay:10.37,2013-01-30 02:13:00,
2013-01-29 21:18:00,35.0,34.7,30.06,ENE,69,1.2,2.3,99,0.01,CLR,,0.24,WeatherDisplay:10.37,2013-01-30 02:18:00,
2013-01-29 21:23:00,35.0,34.7,30.06,East,87,0.4,2.3,99,0.01,CLR,,0.24,WeatherDisplay:10.37,2013-01-30 02:23:00,
2013-01-29 21:28:00,35.0,34.7,30.06,ESE,123,1.8,3.5,99,0.01,CLR,,0.24,WeatherDisplay:10.37,2013-01-30 02:28:00,
2013-01-29 21:33:00,35.0,34.7,30.06,East,88,1.1,2.3,99,0.01,CLR,,0.24,WeatherDisplay:10.37,2013-01-30 02:33:00,
2013-01-29 21:38:00,35.0,34.7,30.05,East,86,0.3,2.3,99,0.01,CLR,,0.24,WeatherDisplay:10.37,2013-01-30 02:38:00,
2013-01-29 21:43:00,35.0,34.7,30.05,ESE,120,2.0,3.5,99,0.01,CLR,,0.24,WeatherDisplay:10.37,2013-01-30 02:43:00,
2013-01-29 21:48:00,35.0,34.7,30.04,SE,136,0.0,1.1,99,0.00,CLR,,0.24,WeatherDisplay:10.37,2013-01-30 02:48:00,
2013-01-29 21:54:00,35.0,34.7,30.04,East,89,2.4,3.5,99,0.00,CLR,,0.24,WeatherDisplay:10.37,2013-01-30 02:54:00,
2013-01-29 21:59:00,35.0,34.7,30.05,ENE,57,0.4,2.3,99,0.00,CLR,,0.24,WeatherDisplay:10.37,2013-01-30 02:59:00,
2013-01-29 22:04:00,35.0,34.7,30.05,SE,134,1.2,3.5,99,0.00,CLR,,0.24,WeatherDisplay:10.37,2013-01-30 03:04:00,
2013-01-29 22:10:00,35.0,34.7,30.05,ESE,115,1.2,1.2,99,0.00,CLR,,0.24,WeatherDisplay:10.37,2013-01-30 03:10:00,
2013-01-29 22:15:00,35.0,34.7,30.05,SE,124,0.2,2.0,99,0.00,CLR,,0.24,WeatherDisplay:10.37,2013-01-30 03:15:00,
2013-01-29 22:20:00,34.9,34.6,30.04,SSE,148,2.2,4.6,99,0.00,CLR,,0.24,WeatherDisplay:10.37,2013-01-30 03:20:00,
2013-01-29 22:25:00,34.9,34.6,30.04,SE,137,1.4,2.3,99,0.00,CLR,,0.24,WeatherDisplay:10.37,2013-01-30 03:25:00,
2013-01-29 22:31:00,34.9,34.9,30.04,SE,143,1.7,4.6,100,0.00,,,0.24,WeatherDisplay:10.37,2013-01-30 03:31:00,
2013-01-29 22:36:00,34.9,34.9,30.05,SE,139,1.0,3.5,100,0.00,,,0.24,WeatherDisplay:10.37,2013-01-30 03:36:00,
2013-01-29 22:41:00,35.0,35.0,30.05,East,96,0.0,1.1,100,0.00,,,0.24,WeatherDisplay:10.37,2013-01-30 03:41:00,
2013-01-29 22:46:00,34.9,34.9,30.05,SE,139,1.2,3.5,100,0.00,,,0.24,WeatherDisplay:10.37,2013-01-30 03:46:00,
2013-01-29 22:51:00,34.9,34.9,30.05,East,86,1.7,4.0,100,0.00,,,0.24,WeatherDisplay:10.37,2013-01-30 03:51:00,
2013-01-29 22:56:00,34.9,34.9,30.05,SE,132,1.1,5.8,100,0.00,,,0.24,WeatherDisplay:10.37,2013-01-30 03:56:00,
2013-01-29 23:01:00,34.9,34.9,30.05,SE,136,0.3,2.3,100,0.00,,,0.24,WeatherDisplay:10.37,2013-01-30 04:01:00,
2013-01-29 23:07:00,34.9,34.9,30.05,ESE,121,0.0,2.3,100,0.00,,,0.24,WeatherDisplay:10.37,2013-01-30 04:07:00,
2013-01-29 23:12:00,34.9,34.9,30.04,ESE,121,1.9,3.5,100,0.00,,,0.24,WeatherDisplay:10.37,2013-01-30 04:12:00,
2013-01-29 23:17:00,34.9,34.9,30.04,SE,134,1.8,3.5,100,0.00,,,0.24,WeatherDisplay:10.37,2013-01-30 04:17:00,
2013-01-29 23:23:00,34.7,34.7,30.04,SE,138,0.1,1.1,100,0.00,,,0.24,WeatherDisplay:10.37,2013-01-30 04:23:00,
2013-01-29 23:28:00,34.7,34.7,30.05,SW,235,0.3,1.1,100,0.00,,,0.24,WeatherDisplay:10.37,2013-01-30 04:28:00,
2013-01-29 23:33:00,34.7,34.7,30.05,SSE,153,1.3,3.5,100,0.00,,,0.24,WeatherDisplay:10.37,2013-01-30 04:33:00,
2013-01-29 23:38:00,34.7,34.7,30.05,SE,146,1.2,2.0,100,0.00,,,0.24,WeatherDisplay:10.37,2013-01-30 04:38:00,
2013-01-29 23:44:00,34.7,34.7,30.04,SE,136,1.4,3.5,100,0.00,,,0.24,WeatherDisplay:10.37,2013-01-30 04:44:00,
2013-01-29 23:49:00,34.7,34.7,30.04,SE,140,1.0,3.5,100,0.00,,,0.24,WeatherDisplay:10.37,2013-01-30 04:49:00,
2013-01-29 23:54:00,34.7,34.7,30.04,SSE,165,1.0,2.3,100,0.00,,,0.24,WeatherDisplay:10.37,2013-01-30 04:54:00,
2013-01-29 23:59:00,34.7,34.7,30.04,SE,139,0.0,1.1,100,0.00,,,0.24,WeatherDisplay:10.37,2013-01-30 04:59:00,